createdAt,value
2022-11-23T00:01:22.150Z,96870.00
2022-11-23T00:03:51.016Z,96868.59
2022-11-23T00:06:18.404Z,96863.75
2022-11-23T00:08:45.055Z,96870.72
2022-11-23T00:11:11.595Z,96869.13
2022-11-23T00:13:41.786Z,96866.75
2022-11-23T00:16:10.210Z,96862.56
2022-11-23T00:18:36.568Z,96866.25
2022-11-23T00:21:09.985Z,96869.16
2022-11-23T00:23:37.138Z,96859.66
2022-11-23T00:26:04.653Z,96868.63
2022-11-23T00:28:31.373Z,96865.81
2022-11-23T00:30:58.050Z,96867.69
2022-11-23T00:33:24.452Z,96869.75
2022-11-23T00:36:24.679Z,96865.72
2022-11-23T00:38:51.315Z,96871.06
2022-11-23T00:41:20.172Z,96865.00
2022-11-23T00:43:46.555Z,96863.97
2022-11-23T00:46:15.705Z,96866.44
2022-11-23T00:48:47.264Z,96868.31
2022-11-23T00:51:15.920Z,96861.19
2022-11-23T00:53:42.672Z,96860.59
2022-11-23T00:56:10.142Z,96857.16
2022-11-23T00:58:38.792Z,96865.06
2022-11-23T01:01:13.515Z,96862.63
2022-11-23T01:03:43.420Z,96862.84
2022-11-23T01:06:12.369Z,96860.63
2022-11-23T01:08:39.429Z,96869.56
2022-11-23T01:11:09.094Z,96871.59
2022-11-23T01:13:37.502Z,96869.59
2022-11-23T01:16:03.972Z,96870.41
2022-11-23T01:18:30.342Z,96864.31
2022-11-23T01:20:56.774Z,96873.06
2022-11-23T01:23:23.159Z,96875.53
2022-11-23T01:25:54.316Z,96877.16
2022-11-23T01:28:23.254Z,96876.31
2022-11-23T01:30:49.589Z,96885.88
2022-11-23T01:33:16.004Z,96884.06
2022-11-23T01:35:42.333Z,96882.41
2022-11-23T01:38:10.593Z,96885.66
2022-11-23T01:40:43.445Z,96885.25
2022-11-23T01:43:16.342Z,96890.53
2022-11-23T01:45:53.052Z,96892.75
2022-11-23T01:48:34.695Z,96894.97
2022-11-23T01:51:04.198Z,96905.09
2022-11-23T01:53:33.062Z,96897.81
2022-11-23T01:56:01.911Z,96896.78
2022-11-23T01:58:33.146Z,96899.00
2022-11-23T02:00:59.814Z,96894.16
2022-11-23T02:03:28.365Z,96899.81
2022-11-23T02:06:00.835Z,96908.09
2022-11-23T02:08:28.595Z,96902.22
2022-11-23T02:10:56.141Z,96901.41
2022-11-23T02:13:24.461Z,96906.69
2022-11-23T02:15:51.985Z,96897.16
2022-11-23T02:18:24.903Z,96907.06
2022-11-23T02:20:52.642Z,96903.84
2022-11-23T02:23:45.874Z,96911.72
2022-11-23T02:26:19.130Z,96917.19
2022-11-23T02:28:50.774Z,96920.84
2022-11-23T02:31:17.116Z,96918.22
2022-11-23T02:33:43.470Z,96917.19
2022-11-23T02:36:40.975Z,96917.00
2022-11-23T02:39:13.646Z,96922.06
2022-11-23T02:41:43.714Z,96920.03
2022-11-23T02:44:23.911Z,96917.63
2022-11-23T02:46:51.726Z,96913.59
2022-11-23T02:49:18.024Z,96914.41
2022-11-23T02:51:44.442Z,96907.31
2022-11-23T02:54:11.204Z,96911.97
2022-11-23T02:56:37.532Z,96913.19
2022-11-23T02:59:04.033Z,96919.06
2022-11-23T03:01:30.514Z,96928.81
2022-11-23T03:03:56.927Z,96926.38
2022-11-23T03:06:23.292Z,96928.03
2022-11-23T03:08:49.665Z,96931.69
2022-11-23T03:11:17.053Z,96924.97
2022-11-23T03:13:43.739Z,96926.19
2022-11-23T03:16:10.543Z,96922.56
2022-11-23T03:18:36.876Z,96922.34
2022-11-23T03:21:04.737Z,96926.59
2022-11-23T03:23:31.698Z,96923.94
2022-11-23T03:25:58.703Z,96925.16
2022-11-23T03:28:25.350Z,96925.75
2022-11-23T03:30:51.754Z,96934.88
2022-11-23T03:33:18.748Z,96939.53
2022-11-23T03:35:45.137Z,96932.03
2022-11-23T03:38:11.661Z,96924.50
2022-11-23T03:40:38.206Z,96930.38
2022-11-23T03:43:04.863Z,96924.69
2022-11-23T03:45:31.781Z,96926.31
2022-11-23T03:47:58.194Z,96927.94
2022-11-23T03:50:24.571Z,96927.31
2022-11-23T03:52:51.187Z,96930.97
2022-11-23T03:55:17.647Z,96929.75
2022-11-23T03:57:43.992Z,96918.41
2022-11-23T04:00:10.898Z,96926.09
2022-11-23T04:02:37.249Z,96919.03
2022-11-23T04:05:03.694Z,96920.63
2022-11-23T04:07:30.089Z,96916.19
2022-11-23T04:09:56.584Z,96917.81
2022-11-23T04:12:22.927Z,96921.22
2022-11-23T04:14:49.277Z,96920.78
2022-11-23T04:17:15.615Z,96912.91
2022-11-23T04:19:42.006Z,96910.88
2022-11-23T04:22:08.459Z,96912.91
2022-11-23T04:24:34.844Z,96913.91
2022-11-23T04:27:01.237Z,96908.44
2022-11-23T04:29:27.589Z,96906.44
2022-11-23T04:31:54.121Z,96906.84
2022-11-23T04:34:20.517Z,96915.78
2022-11-23T04:36:46.887Z,96899.38
2022-11-23T04:39:13.332Z,96906.47
2022-11-23T04:41:39.908Z,96903.06
2022-11-23T04:44:06.393Z,96899.41
2022-11-23T04:46:32.958Z,96902.25
2022-11-23T04:48:59.277Z,96900.63
2022-11-23T04:51:25.633Z,96892.56
2022-11-23T04:53:52.246Z,96888.31
2022-11-23T04:56:18.630Z,96899.66
2022-11-23T04:58:44.945Z,96895.81
2022-11-23T05:01:11.581Z,96900.88
2022-11-23T05:03:37.987Z,96890.13
2022-11-23T05:06:05.148Z,96898.44
2022-11-23T05:08:31.664Z,96895.78
2022-11-23T05:10:58.049Z,96894.78
2022-11-23T05:13:24.538Z,96901.50
2022-11-23T05:15:50.961Z,96900.28
2022-11-23T05:18:17.390Z,96903.09
2022-11-23T05:20:43.750Z,96897.63
2022-11-23T05:23:10.673Z,96900.06
2022-11-23T05:25:37.093Z,96896.22
2022-11-23T05:28:16.928Z,96892.34
2022-11-23T05:30:50.473Z,96899.63
2022-11-23T05:33:16.875Z,96893.16
2022-11-23T05:35:43.438Z,96893.38
2022-11-23T05:38:09.798Z,96890.53
2022-11-23T05:40:36.297Z,96892.97
2022-11-23T05:43:02.978Z,96889.94
2022-11-23T05:45:29.401Z,96889.94
2022-11-23T05:47:57.848Z,96892.16
2022-11-23T05:50:25.903Z,96893.56
2022-11-23T05:52:52.413Z,96895.78
2022-11-23T05:55:18.864Z,96894.56
2022-11-23T05:57:45.228Z,96900.22
2022-11-23T06:00:12.393Z,96902.06
2022-11-23T06:02:41.292Z,96905.09
2022-11-23T06:05:09.112Z,96900.44
2022-11-23T06:07:36.148Z,96906.94
2022-11-23T06:10:03.346Z,96903.91
2022-11-23T06:12:30.339Z,96902.69
2022-11-23T06:14:56.690Z,96900.66
2022-11-23T06:17:23.204Z,96899.41
2022-11-23T06:19:50.115Z,96899.00
2022-11-23T06:22:16.890Z,96904.69
2022-11-23T06:24:43.297Z,96905.31
2022-11-23T06:27:12.964Z,96903.06
2022-11-23T06:29:43.335Z,96904.91
2022-11-23T06:32:09.810Z,96909.75
2022-11-23T06:34:36.172Z,96911.34
2022-11-23T06:37:02.513Z,96912.97
2022-11-23T06:39:28.861Z,96907.69
2022-11-23T06:42:06.544Z,96922.66
2022-11-23T06:44:41.653Z,96918.19
2022-11-23T06:47:10.532Z,96923.66
2022-11-23T06:49:40.324Z,96923.63
2022-11-23T06:52:06.862Z,96926.06
2022-11-23T06:54:33.209Z,96923.63
2022-11-23T06:56:59.609Z,96927.91
2022-11-23T06:59:26.049Z,96930.91
2022-11-23T07:01:52.457Z,96932.34
2022-11-23T07:04:18.826Z,96935.34
2022-11-23T07:06:45.178Z,96934.75
2022-11-23T07:09:11.878Z,96942.88
2022-11-23T07:11:38.207Z,96936.16
2022-11-23T07:14:04.675Z,96943.66
2022-11-23T07:16:31.112Z,96941.03
2022-11-23T07:18:58.273Z,96941.84
2022-11-23T07:21:24.799Z,96946.72
2022-11-23T07:23:51.165Z,96947.31
2022-11-23T07:26:17.482Z,96957.47
2022-11-23T07:28:43.953Z,96957.03
2022-11-23T07:31:10.351Z,96961.09
2022-11-23T07:33:36.686Z,96960.66
2022-11-23T07:36:04.202Z,96960.03
2022-11-23T07:38:30.748Z,96962.06
2022-11-23T07:40:59.027Z,96967.34
2022-11-23T07:43:25.354Z,96958.63
2022-11-23T07:45:51.796Z,96961.66
2022-11-23T07:48:18.253Z,96969.56
2022-11-23T07:50:44.586Z,96979.28
2022-11-23T07:53:11.016Z,96968.50
2022-11-23T07:55:37.553Z,96984.56
2022-11-23T07:58:05.666Z,96977.47
2022-11-23T08:00:32.177Z,96976.00
2022-11-23T08:03:26.171Z,96972.56
2022-11-23T08:05:45.452Z,96974.81
2022-11-23T08:08:12.081Z,96985.59
2022-11-23T08:10:44.154Z,96980.50
2022-11-23T08:13:12.886Z,96979.50
2022-11-23T08:15:39.268Z,96975.00
2022-11-23T08:18:05.808Z,96981.06
2022-11-23T08:20:33.430Z,96988.16
2022-11-23T08:22:59.755Z,96979.59
2022-11-23T08:25:27.967Z,96980.56
2022-11-23T08:27:59.062Z,96982.56
2022-11-23T08:30:26.825Z,96981.38
2022-11-23T08:32:53.446Z,96984.19
2022-11-23T08:35:20.240Z,96986.03
2022-11-23T08:37:46.646Z,96985.41
2022-11-23T08:40:13.938Z,96985.19
2022-11-23T08:42:40.574Z,96977.84
2022-11-23T08:45:07.728Z,96980.88
2022-11-23T08:47:34.402Z,96973.13
2022-11-23T08:50:00.871Z,96977.75
2022-11-23T08:52:27.521Z,96979.78
2022-11-23T08:54:53.881Z,96982.59
2022-11-23T08:57:20.542Z,96974.38
2022-11-23T08:59:46.878Z,96980.28
2022-11-23T09:02:13.883Z,96979.19
2022-11-23T09:04:41.456Z,96980.63
2022-11-23T09:07:08.286Z,96983.47
2022-11-23T09:09:34.799Z,96980.41
2022-11-23T09:12:01.355Z,96979.31
2022-11-23T09:14:27.857Z,96974.94
2022-11-23T09:16:54.943Z,96981.38
2022-11-23T09:19:22.011Z,96980.44
2022-11-23T09:21:48.841Z,96973.41
2022-11-23T09:24:15.339Z,96969.38
2022-11-23T09:26:41.810Z,96968.28
2022-11-23T09:29:08.469Z,96968.31
2022-11-23T09:31:36.015Z,96964.50
2022-11-23T09:34:02.890Z,96970.69
2022-11-23T09:36:30.044Z,96973.16
2022-11-23T09:38:57.567Z,96963.25
2022-11-23T09:41:26.991Z,96968.50
2022-11-23T09:44:11.215Z,96973.00
2022-11-23T09:46:54.287Z,96971.22
2022-11-23T09:49:22.462Z,96968.47
2022-11-23T09:51:55.545Z,96962.88
2022-11-23T09:54:32.689Z,96966.09
2022-11-23T09:57:01.849Z,96956.53
2022-11-23T09:59:40.786Z,96959.31
2022-11-23T10:02:24.023Z,96957.47
2022-11-23T10:04:53.548Z,96953.78
2022-11-23T10:07:37.046Z,96954.59
2022-11-23T10:10:17.548Z,96956.88
2022-11-23T10:12:59.379Z,96951.00
2022-11-23T10:15:37.504Z,96951.91
2022-11-23T10:18:15.877Z,96952.16
2022-11-23T10:21:13.160Z,96949.53
2022-11-23T10:23:54.745Z,96944.31
2022-11-23T10:26:28.021Z,96941.41
2022-11-23T10:28:56.267Z,96931.94
2022-11-23T10:31:24.112Z,96936.94
2022-11-23T10:34:12.501Z,96930.56
2022-11-23T10:36:40.981Z,96933.69
2022-11-23T10:39:23.855Z,96928.72
2022-11-23T10:41:54.406Z,96924.78
2022-11-23T10:44:34.519Z,96926.16
2022-11-23T10:47:01.137Z,96922.94
2022-11-23T10:49:34.196Z,96924.78
2022-11-23T10:52:03.779Z,96924.09
2022-11-23T10:54:48.711Z,96926.84
2022-11-23T10:57:28.308Z,96917.13
2022-11-23T11:00:05.532Z,96929.47
2022-11-23T11:02:42.910Z,96920.09
2022-11-23T11:06:07.387Z,96919.97
2022-11-23T11:08:31.500Z,96920.72
2022-11-23T11:11:01.694Z,96918.03
2022-11-23T11:13:37.950Z,96920.63
2022-11-23T11:16:16.831Z,96915.81
2022-11-23T11:18:43.311Z,96910.97
2022-11-23T11:21:28.586Z,96911.25
2022-11-23T11:24:01.671Z,96910.91
2022-11-23T11:26:30.587Z,96908.66
2022-11-23T11:29:01.388Z,96904.94
2022-11-23T11:31:34.223Z,96900.44
2022-11-23T11:34:38.218Z,96897.28
2022-11-23T11:37:11.042Z,96902.22
2022-11-23T11:39:57.646Z,96897.69
2022-11-23T11:42:34.831Z,96887.44
2022-11-23T11:45:05.365Z,96889.47
2022-11-23T11:47:39.734Z,96886.81
2022-11-23T11:50:28.461Z,96887.84
2022-11-23T11:53:11.130Z,96893.25
2022-11-23T11:55:57.119Z,96892.19
2022-11-23T11:58:27.349Z,96891.47
2022-11-23T12:01:04.461Z,96883.81
2022-11-23T12:03:42.971Z,96884.63
2022-11-23T12:06:26.830Z,96882.78
2022-11-23T12:09:16.566Z,96876.06
2022-11-23T12:11:43.070Z,96884.63
2022-11-23T12:14:13.355Z,96879.88
2022-11-23T12:17:25.331Z,96883.34
2022-11-23T12:20:02.559Z,96878.06
2022-11-23T12:22:52.467Z,96875.16
2022-11-23T12:25:34.601Z,96875.72
2022-11-23T12:28:09.216Z,96872.81
2022-11-23T12:31:01.418Z,96875.47
2022-11-23T12:33:39.667Z,96876.28
2022-11-23T12:36:34.498Z,96870.97
2022-11-23T12:39:17.886Z,96870.97
2022-11-23T12:42:00.412Z,96874.19
2022-11-23T12:44:39.776Z,96868.94
2022-11-23T12:47:14.159Z,96864.19
2022-11-23T12:50:01.881Z,96865.53
2022-11-23T12:52:49.154Z,96861.81
2022-11-23T12:55:29.113Z,96854.22
2022-11-23T12:58:16.884Z,96857.88
2022-11-23T13:00:54.201Z,96854.84
2022-11-23T13:03:59.486Z,96850.50
2022-11-23T13:07:27.310Z,96856.28
2022-11-23T13:10:14.809Z,96848.22
2022-11-23T13:13:04.106Z,96847.97
2022-11-23T13:16:04.651Z,96844.44
2022-11-23T13:19:04.883Z,96850.25
2022-11-23T13:21:36.371Z,96852.50
2022-11-23T13:24:03.250Z,96851.78
2022-11-23T13:26:31.491Z,96848.16
2022-11-23T13:28:59.112Z,96849.59
2022-11-23T13:31:31.452Z,96849.09
2022-11-23T13:34:00.587Z,96834.91
2022-11-23T13:36:56.253Z,96845.50
2022-11-23T13:39:44.078Z,96841.59
2022-11-23T13:42:11.314Z,96840.81
2022-11-23T13:44:37.902Z,96830.41
2022-11-23T13:47:10.275Z,96831.13
2022-11-23T13:49:41.823Z,96834.53
2022-11-23T13:52:23.257Z,96825.56
2022-11-23T13:55:07.397Z,96824.28
2022-11-23T13:57:40.178Z,96815.03
2022-11-23T14:00:44.153Z,96820.00
2022-11-23T14:03:49.501Z,96824.69
2022-11-23T14:06:40.742Z,96819.84
2022-11-23T14:09:24.201Z,96820.41
2022-11-23T14:12:05.486Z,96821.47
2022-11-23T14:14:53.848Z,96823.81
2022-11-23T14:17:38.695Z,96822.53
2022-11-23T14:20:18.959Z,96818.50
2022-11-23T14:23:03.494Z,96830.75
2022-11-23T14:26:11.903Z,96826.72
2022-11-23T14:28:56.921Z,96826.72
2022-11-23T14:31:39.349Z,96823.06
2022-11-23T14:34:49.485Z,96827.91
2022-11-23T14:37:26.751Z,96833.47
2022-11-23T14:40:03.241Z,96832.66
2022-11-23T14:42:31.281Z,96827.66
2022-11-23T14:45:04.652Z,96827.00
2022-11-23T14:47:32.052Z,96831.06
2022-11-23T14:49:58.452Z,96828.38
2022-11-23T14:52:33.029Z,96832.69
2022-11-23T14:55:02.815Z,96837.09
2022-11-23T14:57:40.805Z,96834.78
2022-11-23T15:00:23.850Z,96830.41
2022-11-23T15:02:51.107Z,96834.00
2022-11-23T15:05:20.841Z,96835.19
2022-11-23T15:07:55.864Z,96835.56
2022-11-23T15:10:41.865Z,96837.50
2022-11-23T15:13:51.252Z,96831.66
2022-11-23T15:16:20.173Z,96837.06
2022-11-23T15:18:47.569Z,96831.88
2022-11-23T15:21:27.672Z,96833.75
2022-11-23T15:23:57.656Z,96829.59
2022-11-23T15:26:48.936Z,96837.31
2022-11-23T15:29:35.860Z,96833.59
2022-11-23T15:32:28.543Z,96845.38
2022-11-23T15:34:53.657Z,96835.34
2022-11-23T15:37:21.522Z,96836.69
2022-11-23T15:39:49.113Z,96836.44
2022-11-23T15:42:16.977Z,96834.31
2022-11-23T15:44:48.904Z,96825.91
2022-11-23T15:47:26.194Z,96838.44
2022-11-23T15:49:59.995Z,96833.44
2022-11-23T15:52:30.049Z,96830.06
2022-11-23T15:54:56.628Z,96839.50
2022-11-23T15:57:26.442Z,96835.13
2022-11-23T15:59:58.267Z,96842.31
2022-11-23T16:02:28.734Z,96844.03
2022-11-23T16:05:17.142Z,96843.75
2022-11-23T16:07:54.638Z,96845.66
2022-11-23T16:10:32.891Z,96840.88
2022-11-23T16:13:01.369Z,96840.97
2022-11-23T16:15:44.178Z,96838.38
2022-11-23T16:18:13.743Z,96836.34
2022-11-23T16:20:45.205Z,96837.47
2022-11-23T16:23:18.723Z,96833.44
2022-11-23T16:25:45.127Z,96831.44
2022-11-23T16:28:27.253Z,96838.38
2022-11-23T16:30:53.785Z,96838.47
2022-11-23T16:33:20.611Z,96835.09
2022-11-23T16:35:47.987Z,96843.47
2022-11-23T16:38:14.468Z,96836.16
2022-11-23T16:40:42.420Z,96831.97
2022-11-23T16:43:12.676Z,96836.88
2022-11-23T16:45:41.024Z,96839.38
2022-11-23T16:48:25.894Z,96839.22
2022-11-23T16:50:57.176Z,96842.47
2022-11-23T16:53:26.897Z,96844.53
2022-11-23T16:55:55.059Z,96842.31
2022-11-23T16:58:22.176Z,96854.56
2022-11-23T17:00:49.541Z,96844.88
2022-11-23T17:03:17.566Z,96849.78
2022-11-23T17:05:44.570Z,96859.13
2022-11-23T17:08:11.354Z,96857.72
2022-11-23T17:10:39.295Z,96863.81
2022-11-23T17:13:11.231Z,96857.94
2022-11-23T17:15:37.992Z,96860.19
2022-11-23T17:18:05.033Z,96866.94
2022-11-23T17:20:31.414Z,96877.34
2022-11-23T17:23:00.984Z,96881.41
2022-11-23T17:25:27.449Z,96885.69
2022-11-23T17:27:54.019Z,96885.53
2022-11-23T17:30:22.700Z,96881.91
2022-11-23T17:32:49.956Z,96891.69
2022-11-23T17:35:16.990Z,96892.09
2022-11-23T17:37:43.812Z,96901.25
2022-11-23T17:40:15.036Z,96902.47
2022-11-23T17:42:41.421Z,96895.41
2022-11-23T17:45:08.188Z,96909.25
2022-11-23T17:47:34.916Z,96904.38
2022-11-23T17:50:01.407Z,96913.72
2022-11-23T17:52:27.792Z,96921.03
2022-11-23T17:54:54.210Z,96911.69
2022-11-23T17:57:25.722Z,96919.22
2022-11-23T17:59:53.294Z,96921.47
2022-11-23T18:02:20.729Z,96920.25
2022-11-23T18:04:47.781Z,96921.88
2022-11-23T18:07:15.953Z,96922.91
2022-11-23T18:09:43.169Z,96937.53
2022-11-23T18:12:09.880Z,96923.16
2022-11-23T18:14:37.316Z,96935.94
2022-11-23T18:17:03.702Z,96937.16
2022-11-23T18:19:30.372Z,96940.81
2022-11-23T18:21:57.313Z,96935.31
2022-11-23T18:24:23.823Z,96934.72
2022-11-23T18:26:50.191Z,96940.19
2022-11-23T18:29:17.408Z,96936.16
2022-11-23T18:31:44.023Z,96943.84
2022-11-23T18:34:10.598Z,96949.53
2022-11-23T18:36:37.113Z,96949.16
2022-11-23T18:39:03.888Z,96949.31
2022-11-23T18:41:30.333Z,96947.09
2022-11-23T18:43:56.813Z,96952.56
2022-11-23T18:46:23.403Z,96955.00
2022-11-23T18:48:50.974Z,96958.06
2022-11-23T18:51:18.332Z,96962.94
2022-11-23T18:53:47.381Z,96958.25
2022-11-23T18:56:13.852Z,96966.16
2022-11-23T18:58:42.686Z,96962.72
2022-11-23T19:01:12.742Z,96964.13
2022-11-23T19:03:41.331Z,96973.84
2022-11-23T19:06:11.949Z,96966.34
2022-11-23T19:08:43.058Z,96969.38
2022-11-23T19:11:17.572Z,96978.09
2022-11-23T19:13:46.161Z,96982.75
2022-11-23T19:16:15.940Z,96987.59
2022-11-23T19:18:42.574Z,96987.16
2022-11-23T19:21:17.578Z,96997.50
2022-11-23T19:23:47.831Z,96993.63
2022-11-23T19:26:14.326Z,96997.28
2022-11-23T19:28:44.636Z,97004.56
2022-11-23T19:31:16.858Z,97004.56
2022-11-23T19:33:45.820Z,97009.63
2022-11-23T19:36:18.065Z,97015.31
2022-11-23T19:38:44.820Z,97008.03
2022-11-23T19:41:11.604Z,97013.34
2022-11-23T19:43:38.308Z,97014.56
2022-11-23T19:46:06.597Z,97019.22
2022-11-23T19:48:34.566Z,97015.97
2022-11-23T19:51:06.700Z,97021.25
2022-11-23T19:53:35.554Z,97030.22
2022-11-23T19:56:15.980Z,97033.25
2022-11-23T19:58:43.674Z,97026.38
2022-11-23T20:01:15.502Z,97032.47
2022-11-23T20:03:47.811Z,97033.31
2022-11-23T20:06:25.281Z,97037.56
2022-11-23T20:09:03.730Z,97046.88
2022-11-23T20:11:31.673Z,97055.63
2022-11-23T20:13:58.729Z,97063.34
2022-11-23T20:16:27.158Z,97061.31
2022-11-23T20:18:59.243Z,97071.84
2022-11-23T20:21:27.888Z,97084.88
2022-11-23T20:24:06.722Z,97090.13
2022-11-23T20:26:36.051Z,97098.25
2022-11-23T20:29:03.874Z,97098.66
2022-11-23T20:31:31.907Z,97102.34
2022-11-23T20:33:58.893Z,97103.53
2022-11-23T20:36:31.002Z,97106.19
2022-11-23T20:39:00.538Z,97108.41
2022-11-23T20:41:29.805Z,97107.19
2022-11-23T20:44:01.373Z,97113.28
2022-11-23T20:46:59.891Z,97115.91
2022-11-23T20:49:17.105Z,97120.59
2022-11-23T20:51:43.480Z,97124.47
2022-11-23T20:54:09.912Z,97126.88
2022-11-23T20:56:38.652Z,97131.34
2022-11-23T20:59:05.012Z,97130.53
2022-11-23T21:01:31.578Z,97130.75
2022-11-23T21:03:59.459Z,97132.16
2022-11-23T21:06:26.782Z,97136.81
2022-11-23T21:08:53.794Z,97141.06
2022-11-23T21:11:38.561Z,97143.09
2022-11-23T21:14:11.204Z,97144.53
2022-11-23T21:16:52.773Z,97142.72
2022-11-23T21:19:21.019Z,97146.16
2022-11-23T21:21:47.753Z,97155.91
2022-11-23T21:24:14.191Z,97147.19
2022-11-23T21:26:40.793Z,97149.63
2022-11-23T21:29:11.285Z,97152.06
2022-11-23T21:31:39.461Z,97153.06
2022-11-23T21:34:06.257Z,97156.53
2022-11-23T21:36:37.671Z,97157.13
2022-11-23T21:39:07.196Z,97156.94
2022-11-23T21:41:33.868Z,97158.34
2022-11-23T21:44:00.408Z,97155.91
2022-11-23T21:46:27.082Z,97154.88
2022-11-23T21:48:55.491Z,97153.47
2022-11-23T21:51:26.163Z,97158.53
2022-11-23T21:53:54.288Z,97159.34
2022-11-23T21:56:20.974Z,97166.25
2022-11-23T21:58:47.536Z,97162.41
2022-11-23T22:01:18.041Z,97162.41
2022-11-23T22:03:52.937Z,97167.88
2022-11-23T22:06:20.894Z,97167.88
2022-11-23T22:08:52.831Z,97180.06
2022-11-23T22:11:24.097Z,97184.34
2022-11-23T22:13:55.569Z,97183.72
2022-11-23T22:16:30.374Z,97182.09
2022-11-23T22:18:57.797Z,97186.97
2022-11-23T22:21:26.317Z,97191.84
2022-11-23T22:23:53.383Z,97188.78
2022-11-23T22:26:21.258Z,97191.84
2022-11-23T22:28:50.192Z,97196.09
2022-11-23T22:31:19.213Z,97193.44
2022-11-23T22:33:46.553Z,97195.06
2022-11-23T22:36:15.376Z,97202.78
2022-11-23T22:38:41.947Z,97203.41
2022-11-23T22:41:11.680Z,97198.53
2022-11-23T22:43:38.729Z,97202.59
2022-11-23T22:46:11.303Z,97204.03
2022-11-23T22:48:39.492Z,97199.34
2022-11-23T22:51:07.103Z,97208.50
2022-11-23T22:53:33.945Z,97210.72
2022-11-23T22:56:06.820Z,97214.19
2022-11-23T22:58:33.177Z,97217.03
2022-11-23T23:01:08.204Z,97214.78
2022-11-23T23:03:35.096Z,97224.72
2022-11-23T23:06:02.126Z,97222.72
2022-11-23T23:08:28.892Z,97227.59
2022-11-23T23:10:55.428Z,97224.53
2022-11-23T23:13:22.471Z,97238.53
2022-11-23T23:15:49.138Z,97235.88
2022-11-23T23:18:16.460Z,97246.47
2022-11-23T23:20:43.034Z,97247.44
2022-11-23T23:23:09.419Z,97255.78
2022-11-23T23:25:35.752Z,97254.75
2022-11-23T23:28:02.265Z,97258.59
2022-11-23T23:30:28.654Z,97259.81
2022-11-23T23:32:57.181Z,97266.34
2022-11-23T23:35:23.685Z,97269.59
2022-11-23T23:37:51.503Z,97275.69
2022-11-23T23:40:18.040Z,97273.66
2022-11-23T23:42:44.574Z,97272.19
2022-11-23T23:45:11.143Z,97281.34
2022-11-23T23:47:37.893Z,97283.34
2022-11-23T23:50:04.888Z,97284.59
2022-11-23T23:52:31.321Z,97291.31
2022-11-23T23:54:57.792Z,97290.09
2022-11-23T23:57:24.242Z,97290.09
2022-11-23T23:59:50.826Z,97295.78
